Latest Weather Observations for Tatura

IDV60801

Issued at 4:12 pm EST Sunday 11 April 2021 (issued every 10 minutes, with the page automatically refreshed every 10 minutes)

About weather observations | Map of weather stations | Latest weather observations for VIC | Other Formats
Station Details ID: 081049 Name: TATURA INST SUSTAINABLE AG Lat: -36.44 Lon: 145.27 Height: 114.0 m
Data from the previous 72 hours. | See also: Recent months at Tatura
Date/Time
EST
Temp
°C
App
Temp
°C
Dew
Point
°C
Rel
Hum
%
Delta-T
°C
Wind Press
QNH
hPa
Press
MSL
hPa
Rain since
9am
mm
Dir  Spd
km/h
Gust
km/h
Spd
kts
Gust
kts
11/04:00pm 16.5 11.7 2.5 39 6.4 SSW 17 28 9 15 - - 0.0
11/03:30pm 15.6 9.4 2.4 41 5.9 SW 24 37 13 20 - - 0.0
11/03:00pm 16.5 11.2 1.8 37 6.6 SW 19 30 10 16 - - 0.0
11/02:30pm 15.2 8.0 1.0 38 6.2 SW 28 41 15 22 - - 0.0
11/02:00pm 16.3 8.5 2.0 38 6.4 SW 32 46 17 25 - - 0.0
11/01:53pm 15.9 8.8 1.2 37 6.5 SSW 28 46 15 25 - - 0.0
11/01:30pm 16.0 9.6 1.0 36 6.6 SW 24 37 13 20 - - 0.0
11/01:00pm 15.1 9.2 2.0 41 5.8 SW 22 32 12 17 - - 0.0
11/12:30pm 14.7 8.7 3.2 46 5.2 SW 24 35 13 19 - - 0.0
11/12:00pm 14.2 8.9 3.1 47 5.0 SW 20 32 11 17 - - 0.0
11/11:30am 13.7 9.1 3.5 50 4.6 SW 17 30 9 16 - - 0.0
11/11:00am 13.6 8.1 3.9 52 4.4 SW 22 33 12 18 - - 0.0
11/10:30am 11.7 6.1 3.5 57 3.7 SW 22 32 12 17 - - 0.0
11/10:00am 11.3 6.1 3.6 59 3.4 WSW 20 33 11 18 - - 0.0
11/09:30am 10.3 4.8 4.0 65 2.8 WSW 22 32 12 17 - - 0.0
11/09:00am 9.3 3.7 3.7 68 2.5 WSW 22 32 12 17 - - 0.0
11/08:30am 8.8 3.3 4.0 72 2.1 W 22 30 12 16 - - 0.0
11/08:00am 7.7 2.5 3.7 76 1.7 W 20 30 11 16 - - 0.0
11/07:30am 6.8 1.8 3.4 79 1.4 W 19 28 10 15 - - 0.0
11/07:00am 5.9 1.2 3.1 82 1.2 W 17 24 9 13 - - 0.0
11/06:30am 6.0 0.7 3.0 81 1.3 W 20 30 11 16 - - 0.0
11/06:00am 6.2 1.4 2.8 79 1.4 W 17 22 9 12 - - 0.0
11/05:30am 6.3 1.9 2.8 78 1.5 WSW 15 20 8 11 - - 0.0
11/05:00am 6.6 1.9 3.2 79 1.4 WSW 17 22 9 12 - - 0.0
11/04:30am 6.5 2.2 3.1 79 1.4 WSW 15 20 8 11 - - 0.0
11/04:00am 7.0 1.7 2.9 75 1.7 WSW 20 28 11 15 - - 0.0
11/03:30am 7.3 2.0 3.2 75 1.7 WSW 20 30 11 16 - - 0.0
11/03:00am 7.5 3.4 4.1 79 1.5 WSW 15 28 8 15 - - 0.0
11/02:30am 7.7 3.3 4.5 80 1.4 WSW 17 22 9 12 - - 0.0
11/02:00am 8.0 3.6 4.9 81 1.4 W 17 26 9 14 - - 0.0
11/01:30am 8.4 4.3 4.6 77 1.7 W 15 20 8 11 - - 0.0
11/01:00am 9.6 4.6 3.8 67 2.6 SW 19 32 10 17 - - 0.0
11/12:30am 10.1 4.4 4.7 69 2.4 WSW 24 35 13 19 - - 0.0
11/12:00am 10.4 5.3 4.1 65 2.8 WSW 20 28 11 15 - - 0.0
 
Date/Time
EST
Temp
°C
App
Temp
°C
Dew
Point
°C
Rel
Hum
%
Delta-T
°C
Wind Press
QNH
hPa
Press
MSL
hPa
Rain since
9am
mm
Dir  Spd
km/h
Gust
km/h
Spd
kts
Gust
kts
10/11:30pm 10.6 5.5 3.9 63 3.0 WSW 20 28 11 15 - - 0.0
10/11:00pm 10.7 5.2 4.0 63 3.0 WSW 22 37 12 20 - - 0.0
10/10:30pm 11.1 5.6 3.9 61 3.2 WSW 22 33 12 18 - - 0.0
10/10:00pm 11.7 6.8 4.2 60 3.4 SW 19 33 10 18 - - 0.0
10/09:30pm 11.8 7.0 4.5 61 3.3 SW 19 28 10 15 - - 0.0
10/09:00pm 12.5 8.0 4.2 57 3.8 SW 17 26 9 14 - - 0.0
10/08:30pm 12.6 8.0 3.8 55 4.0 SSW 17 28 9 15 - - 0.0
10/08:00pm 13.1 8.5 3.7 53 4.3 SSW 17 26 9 14 - - 0.0
10/07:30pm 14.0 8.6 4.6 53 4.4 SSW 22 32 12 17 - - 0.0
10/07:00pm 15.2 10.4 4.6 49 5.0 SSW 19 33 10 18 - - 0.0
10/06:30pm 16.0 10.9 4.1 45 5.6 WSW 20 32 11 17 - - 0.0
10/06:00pm 16.5 11.6 3.9 43 5.9 WSW 19 28 10 15 - - 0.0
10/05:30pm 16.9 12.8 4.6 44 5.8 WSW 15 22 8 12 - - 0.0
10/05:00pm 17.7 12.8 4.3 41 6.4 WSW 19 30 10 16 - - 0.0
10/04:30pm 18.0 11.3 3.9 39 6.7 WSW 28 44 15 24 - - 0.0
10/04:00pm 17.7 12.5 7.2 50 5.3 SW 24 39 13 21 - - 0.0
10/03:30pm 18.0 14.1 9.6 58 4.4 SSW 20 33 11 18 - - 0.0
10/03:00pm 17.2 13.3 9.6 61 4.0 SSW 20 32 11 17 - - 0.0
10/02:30pm 19.1 13.7 7.8 48 5.8 W 26 33 14 18 - - 0.0
10/02:00pm 18.8 13.4 7.9 49 5.6 WNW 26 43 14 23 - - 0.0
10/01:30pm 18.2 14.1 8.7 54 4.9 W 20 30 11 16 - - 0.0
10/01:00pm 17.4 12.9 8.5 56 4.6 W 22 28 12 15 - - 0.0
10/12:30pm 17.5 13.5 8.9 57 4.5 W 20 30 11 16 - - 0.0
10/12:00pm 17.1 12.2 8.3 56 4.5 W 24 33 13 18 - - 0.0
10/11:30am 16.1 11.2 8.3 60 4.0 W 24 32 13 17 - - 0.0
10/11:00am 16.0 10.2 8.0 59 4.1 W 28 37 15 20 - - 0.0
10/10:30am 16.0 11.0 8.0 59 4.1 W 24 35 13 19 - - 0.0
10/10:00am 14.9 10.7 8.2 64 3.4 W 20 28 11 15 - - 0.0
10/09:30am 14.2 9.5 7.7 65 3.2 W 22 28 12 15 - - 0.0
10/09:00am 13.4 10.2 8.3 71 2.6 W 15 24 8 13 - - 0.0
10/08:30am 12.4 9.5 8.3 76 2.0 WNW 13 19 7 10 - - 0.0
10/08:00am 11.3 9.1 8.0 80 1.6 WNW 9 15 5 8 - - 0.0
10/07:30am 10.6 8.0 7.7 82 1.4 WNW 11 15 6 8 - - 0.0
10/07:00am 9.4 7.3 6.8 84 1.2 WNW 7 9 4 5 - - 0.0
10/06:30am 10.5 8.1 7.2 80 1.6 W 9 15 5 8 - - 0.0
10/06:00am 11.0 7.9 7.1 77 1.9 WSW 13 17 7 9 - - 0.0
10/05:30am 9.9 7.6 7.5 85 1.2 W 9 11 5 6 - - 0.0
10/05:00am 9.9 8.0 7.5 85 1.2 W 7 9 4 5 - - 0.0
10/04:30am 10.6 8.4 7.8 83 1.4 W 9 11 5 6 - - 0.0
10/04:00am 10.9 8.9 8.5 85 1.2 W 9 11 5 6 - - 0.0
10/03:30am 10.5 8.8 8.4 87 1.0 WSW 7 13 4 7 - - 0.0
10/03:00am 9.9 7.8 8.3 90 0.8 W 9 11 5 6 - - 0.0
10/02:30am 8.6 6.6 7.2 91 0.7 WSW 7 9 4 5 - - 0.0
10/02:00am 8.8 6.8 7.3 90 0.7 W 7 9 4 5 - - 0.0
10/01:30am 8.5 6.5 7.1 91 0.7 WSW 7 7 4 4 - - 0.0
10/01:00am 8.5 6.5 7.0 90 0.7 WSW 7 9 4 5 - - 0.0
10/12:30am 9.3 7.3 7.3 87 1.0 WSW 7 9 4 5 - - 0.0
10/12:00am 10.0 7.7 7.4 84 1.2 S 9 9 5 5 - - 0.0
 
Date/Time
EST
Temp
°C
App
Temp
°C
Dew
Point
°C
Rel
Hum
%
Delta-T
°C
Wind Press
QNH
hPa
Press
MSL
hPa
Rain since
9am
mm
Dir  Spd
km/h
Gust
km/h
Spd
kts
Gust
kts
09/11:30pm 10.2 7.9 7.6 84 1.3 SSE 9 13 5 7 - - 0.0
09/11:00pm 10.5 8.2 7.4 81 1.5 S 9 11 5 6 - - 0.0
09/10:30pm 10.6 7.9 7.3 80 1.6 SSE 11 13 6 7 - - 0.0
09/10:00pm 10.8 8.5 7.3 79 1.7 S 9 11 5 6 - - 0.0
09/09:30pm 11.1 8.7 7.2 77 1.9 S 9 11 5 6 - - 0.0
09/09:00pm 11.9 9.6 7.4 74 2.2 SSE 9 11 5 6 - - 0.0
09/08:30pm 12.6 10.6 7.3 70 2.6 S 7 9 4 5 - - 0.0
09/08:00pm 14.1 11.4 7.4 64 3.3 S 11 15 6 8 - - 0.0
09/07:30pm 14.4 11.7 7.5 63 3.4 SSE 11 13 6 7 - - 0.0
09/07:00pm 14.4 11.5 6.7 60 3.8 SSW 11 15 6 8 - - 0.0
09/06:30pm 15.7 11.7 6.7 55 4.4 S 17 22 9 12 - - 0.0
09/06:00pm 16.3 13.1 7.0 54 4.6 S 13 19 7 10 - - 0.0
09/05:30pm 16.4 12.9 7.1 54 4.6 S 15 24 8 13 - - 0.0
09/05:00pm 17.8 14.2 6.7 48 5.5 S 15 22 8 12 - - 0.0
09/04:30pm 18.5 13.8 6.0 44 6.2 S 20 30 11 16 - - 0.0
09/04:00pm 18.8 13.9 5.3 41 6.6 SSE 20 28 11 15 - - 0.0
09/03:30pm 18.7 14.2 5.9 43 6.3 S 19 32 10 17 - - 0.0
09/03:00pm 19.6 15.2 6.7 43 6.5 SSE 19 30 10 16 - - 0.0
09/02:30pm 18.5 13.4 6.0 44 6.2 SSE 22 37 12 20 - - 0.0
09/02:00pm 18.4 13.2 5.6 43 6.3 SSW 22 32 12 17 - - 0.0
09/01:30pm 18.6 14.8 5.8 43 6.3 SSW 15 28 8 15 - - 0.0
09/01:00pm 18.5 13.9 6.7 46 5.9 S 20 30 11 16 - - 0.0
09/12:30pm 18.1 13.5 6.3 46 5.9 SSW 20 32 11 17 - - 0.0
09/12:00pm 17.7 12.2 5.9 46 5.8 S 24 37 13 20 - - 0.0
09/11:30am 17.2 11.7 6.1 48 5.5 SSW 24 41 13 22 - - 0.0
09/11:00am 17.3 11.9 6.5 49 5.4 S 24 39 13 21 - - 0.0
09/10:30am 16.4 10.9 6.0 50 5.1 S 24 39 13 21 - - 0.0
09/10:00am 15.7 10.1 7.0 56 4.3 S 26 37 14 20 - - 0.0
09/09:30am 14.6 10.0 8.3 66 3.2 SSW 22 37 12 20 - - 0.0
09/09:00am 15.4 10.8 9.7 69 3.0 S 24 35 13 19 - - 1.4
09/08:32am 14.1 8.5 8.9 71 2.6 S 28 50 15 27 - - 1.4
09/08:30am 14.3 9.3 9.5 73 2.5 S 26 41 14 22 - - 1.4
09/08:00am 14.3 11.3 10.7 79 1.9 SSW 17 26 9 14 - - 1.4
09/07:30am 14.3 11.1 11.1 81 1.7 S 19 28 10 15 - - 1.4
09/07:00am 14.0 10.8 11.2 83 1.5 S 19 28 10 15 - - 1.4
09/06:30am 14.7 10.7 11.8 83 1.6 S 24 35 13 19 - - 1.4
09/06:00am 15.4 14.2 13.9 91 0.8 WSW 13 17 7 9 - - 1.4
09/05:30am 15.7 15.0 14.2 91 0.9 W 11 19 6 10 - - 1.4
09/05:00am 15.5 15.0 13.9 90 0.9 SW 9 11 5 6 - - 1.4
09/04:30am 16.0 14.1 13.1 83 1.6 WSW 15 22 8 12 - - 1.2
09/04:00am 17.7 15.5 12.2 70 3.1 WSW 15 22 8 12 - - 0.0
09/03:30am 18.4 15.5 8.1 51 5.3 S 13 17 7 9 - - 0.0
09/03:00am 19.4 16.1 6.2 42 6.6 S 13 20 7 11 - - 0.0
09/02:30am 19.6 14.6 4.5 37 7.3 WSW 20 30 11 16 - - 0.0
09/02:00am 18.1 15.3 6.9 48 5.6 W 11 15 6 8 - - 0.0
09/01:30am 15.5 15.4 9.4 67 3.2 CALM 0 0 0 0 - - 0.0
09/01:00am 17.3 15.4 7.6 53 4.9 NNW 7 9 4 5 - - 0.0
09/12:30am 17.8 15.6 7.8 52 5.1 N 9 13 5 7 - - 0.0
09/12:00am 15.6 14.3 9.9 69 3.0 NNW 7 7 4 4 - - 0.0
 
Date/Time
EST
Temp
°C
App
Temp
°C
Dew
Point
°C
Rel
Hum
%
Delta-T
°C
Wind Press
QNH
hPa
Press
MSL
hPa
Rain since
9am
mm
Dir  Spd
km/h
Gust
km/h
Spd
kts
Gust
kts
08/11:30pm 16.2 15.0 9.6 65 3.5 N 6 7 3 4 - - 0.0
08/11:00pm 15.8 15.7 10.8 72 2.7 NW 2 6 1 3 - - 0.0
08/10:30pm 15.9 16.0 10.0 68 3.1 CALM 0 0 0 0 - - 0.0
08/10:00pm 15.8 15.6 10.6 71 2.8 NNW 2 6 1 3 - - 0.0
08/09:30pm 15.2 14.3 10.8 75 2.3 NNW 6 7 3 4 - - 0.0
08/09:00pm 15.7 15.0 11.3 75 2.4 N 6 7 3 4 - - 0.0
08/08:30pm 15.8 15.2 11.8 77 2.2 NNW 6 6 3 3 - - 0.0
08/08:00pm 17.0 16.5 11.9 72 2.8 NW 6 7 3 4 - - 0.0
08/07:30pm 17.7 17.2 11.9 69 3.2 NW 6 7 3 4 - - 0.0
08/07:00pm 18.8 17.9 10.6 59 4.4 WNW 6 7 3 4 - - 0.0
08/06:30pm 20.4 19.4 11.1 55 5.1 WNW 7 9 4 5 - - 0.0
08/06:00pm 22.6 22.8 12.0 51 6.0 W 2 6 1 3 - - 0.0
08/05:30pm 24.7 23.5 10.2 40 8.0 WNW 7 9 4 5 - - 0.0
08/05:00pm 26.4 24.0 8.8 33 9.6 WNW 11 15 6 8 - - 0.0
08/04:30pm 27.1 23.7 7.5 29 10.5 NW 15 24 8 13 - - 0.0

Other formats

Comma delimited format used in spreadsheet applications
http://www.bom.gov.au/fwo/IDV60801/IDV60801.95836.axf

JavaScript Object Notation format (JSON) in row-major order
http://www.bom.gov.au/fwo/IDV60801/IDV60801.95836.json

Data quality

Most of these data are generated automatically and are frequently updated. Quality checks on data are not normally performed. It is possible for incorrect values to appear. Refer to information at About Latest Weather Observations and please check the disclaimer before using these data.